createdAt,value
2023-04-16T00:00:35.056Z,6.53
2023-04-16T00:03:02.384Z,6.54
2023-04-16T00:05:29.860Z,6.56
2023-04-16T00:07:57.104Z,6.55
2023-04-16T00:10:24.444Z,6.42
2023-04-16T00:12:51.781Z,6.39
2023-04-16T00:15:19.081Z,6.40
2023-04-16T00:17:46.435Z,6.34
2023-04-16T00:20:13.770Z,6.28
2023-04-16T00:22:41.040Z,6.31
2023-04-16T00:25:08.526Z,6.29
2023-04-16T00:27:35.851Z,6.27
2023-04-16T00:30:03.656Z,6.29
2023-04-16T00:32:31.087Z,6.29
2023-04-16T00:34:58.444Z,6.31
2023-04-16T00:37:25.787Z,6.29
2023-04-16T00:39:53.141Z,6.29
2023-04-16T00:42:20.352Z,6.34
2023-04-16T00:44:47.758Z,6.36
2023-04-16T00:47:15.177Z,6.38
2023-04-16T00:49:42.662Z,6.38
2023-04-16T00:52:12.368Z,6.40
2023-04-16T00:54:40.346Z,6.42
2023-04-16T00:57:07.978Z,6.45
2023-04-16T00:59:35.201Z,6.46
2023-04-16T01:02:03.271Z,6.47
2023-04-16T01:04:31.341Z,6.34
2023-04-16T01:06:58.723Z,6.29
2023-04-16T01:09:25.966Z,6.28
2023-04-16T01:11:53.292Z,6.32
2023-04-16T01:14:20.732Z,6.32
2023-04-16T01:16:48.244Z,6.33
2023-04-16T01:19:15.852Z,6.38
2023-04-16T01:21:43.223Z,6.42
2023-04-16T01:24:10.473Z,6.45
2023-04-16T01:26:37.789Z,6.39
2023-04-16T01:29:05.142Z,6.39
2023-04-16T01:31:33.419Z,6.36
2023-04-16T01:34:23.664Z,6.38
2023-04-16T01:36:51.561Z,6.37
2023-04-16T01:39:20.016Z,6.41
2023-04-16T01:41:47.351Z,6.40
2023-04-16T01:44:14.543Z,6.38
2023-04-16T01:46:44.462Z,6.46
2023-04-16T01:49:11.883Z,6.48
2023-04-16T01:51:39.295Z,6.55
2023-04-16T01:54:06.636Z,6.61
2023-04-16T01:56:34.048Z,6.62
2023-04-16T01:59:01.312Z,6.66
2023-04-16T02:01:34.986Z,6.71
2023-04-16T02:04:03.151Z,6.67
2023-04-16T02:06:32.157Z,6.66
2023-04-16T02:08:59.377Z,6.60
2023-04-16T02:11:26.915Z,6.61
2023-04-16T02:13:55.054Z,6.59
2023-04-16T02:16:22.483Z,6.58
2023-04-16T02:18:52.842Z,6.52
2023-04-16T02:21:22.362Z,6.57
2023-04-16T02:23:52.202Z,6.48
2023-04-16T02:26:26.709Z,6.42
2023-04-16T02:28:56.786Z,6.42
2023-04-16T02:31:30.088Z,6.48
2023-04-16T02:33:58.267Z,6.54
2023-04-16T02:36:26.031Z,6.46
2023-04-16T02:38:55.457Z,6.45
2023-04-16T02:41:22.714Z,6.42
2023-04-16T02:43:50.026Z,6.44
2023-04-16T02:46:17.453Z,6.47
2023-04-16T02:48:44.906Z,6.47
2023-04-16T02:51:12.176Z,6.39
2023-04-16T02:53:39.558Z,6.42
2023-04-16T02:56:07.558Z,6.37
2023-04-16T02:58:34.753Z,6.36
2023-04-16T03:01:02.182Z,6.32
2023-04-16T03:03:29.780Z,6.33
2023-04-16T03:05:57.180Z,6.29
2023-04-16T03:08:24.516Z,6.35
2023-04-16T03:10:52.019Z,6.39
2023-04-16T03:13:19.384Z,6.44
2023-04-16T03:15:50.432Z,6.50
2023-04-16T03:18:17.892Z,6.51
2023-04-16T03:20:45.218Z,6.51
2023-04-16T03:23:12.508Z,6.54
2023-04-16T03:25:41.284Z,6.57
2023-04-16T03:28:10.055Z,6.62
2023-04-16T03:30:38.362Z,6.63
2023-04-16T03:33:07.021Z,6.58
2023-04-16T03:35:35.132Z,6.61
2023-04-16T03:38:03.265Z,6.59
2023-04-16T03:40:30.690Z,6.60
2023-04-16T03:43:00.463Z,6.62
2023-04-16T03:45:28.842Z,6.61
2023-04-16T03:47:56.546Z,6.62
2023-04-16T03:50:26.265Z,6.57
2023-04-16T03:52:53.551Z,6.53
2023-04-16T03:55:20.852Z,6.54
2023-04-16T03:57:48.038Z,6.51
2023-04-16T04:00:17.146Z,6.42
2023-04-16T04:03:00.054Z,6.36
2023-04-16T04:05:27.993Z,6.31
2023-04-16T04:07:55.206Z,6.22
2023-04-16T04:10:23.351Z,6.24
2023-04-16T04:12:50.993Z,6.20
2023-04-16T04:15:18.525Z,6.24
2023-04-16T04:17:46.471Z,6.22
2023-04-16T04:20:14.011Z,6.24
2023-04-16T04:22:44.622Z,6.21
2023-04-16T04:25:12.856Z,6.19
2023-04-16T04:27:40.589Z,6.22
2023-04-16T04:30:09.263Z,6.25
2023-04-16T04:32:36.645Z,6.26
2023-04-16T04:35:04.396Z,6.25
2023-04-16T04:37:31.841Z,6.28
2023-04-16T04:39:59.642Z,6.27
2023-04-16T04:42:27.581Z,6.22
2023-04-16T04:44:55.653Z,6.24
2023-04-16T04:47:24.047Z,6.29
2023-04-16T04:49:53.522Z,6.27
2023-04-16T04:52:21.108Z,6.27
2023-04-16T04:54:50.010Z,6.20
2023-04-16T04:57:17.469Z,6.28
2023-04-16T04:59:45.121Z,6.31
2023-04-16T05:02:14.421Z,6.33
2023-04-16T05:04:41.782Z,6.28
2023-04-16T05:07:09.044Z,6.36
2023-04-16T05:09:36.324Z,6.36
2023-04-16T05:12:04.663Z,6.38
2023-04-16T05:14:31.917Z,6.42
2023-04-16T05:16:59.384Z,6.45
2023-04-16T05:19:26.605Z,6.40
2023-04-16T05:21:54.881Z,6.41
2023-04-16T05:24:22.760Z,6.47
2023-04-16T05:26:50.043Z,6.57
2023-04-16T05:29:17.413Z,6.62
2023-04-16T05:31:44.883Z,6.57
2023-04-16T05:34:12.243Z,6.58
2023-04-16T05:36:39.656Z,6.67
2023-04-16T05:39:08.312Z,6.72
2023-04-16T05:41:35.793Z,6.70
2023-04-16T05:44:03.115Z,6.81
2023-04-16T05:46:30.461Z,6.93
2023-04-16T05:48:57.689Z,6.90
2023-04-16T05:51:26.637Z,6.86
2023-04-16T05:53:53.949Z,6.79
2023-04-16T05:56:22.567Z,6.78
2023-04-16T05:58:49.818Z,6.84
2023-04-16T06:01:17.121Z,6.84
2023-04-16T06:03:45.732Z,6.96
2023-04-16T06:06:13.398Z,7.05
2023-04-16T06:08:40.639Z,7.08
2023-04-16T06:11:07.969Z,7.21
2023-04-16T06:13:35.402Z,7.13
2023-04-16T06:16:02.808Z,7.16
2023-04-16T06:18:30.152Z,7.26
2023-04-16T06:20:59.491Z,7.39
2023-04-16T06:23:26.799Z,7.46
2023-04-16T06:25:54.728Z,7.65
2023-04-16T06:28:22.277Z,7.84
2023-04-16T06:30:49.597Z,7.91
2023-04-16T06:33:17.141Z,7.91
2023-04-16T06:35:44.379Z,7.81
2023-04-16T06:38:11.691Z,7.76
2023-04-16T06:40:39.167Z,7.90
2023-04-16T06:43:06.666Z,8.07
2023-04-16T06:45:33.998Z,8.11
2023-04-16T06:48:01.966Z,7.87
2023-04-16T06:50:29.249Z,7.92
2023-04-16T06:52:56.996Z,7.90
2023-04-16T06:55:24.319Z,7.92
2023-04-16T06:57:51.617Z,8.02
2023-04-16T07:00:19.199Z,8.03
2023-04-16T07:02:46.720Z,8.08
2023-04-16T07:05:14.109Z,7.90
2023-04-16T07:07:41.523Z,7.86
2023-04-16T07:10:09.177Z,7.93
2023-04-16T07:12:36.652Z,8.08
2023-04-16T07:15:04.150Z,8.27
2023-04-16T07:17:31.469Z,8.49
2023-04-16T07:19:58.854Z,8.69
2023-04-16T07:22:26.232Z,8.84
2023-04-16T07:24:53.440Z,8.99
2023-04-16T07:27:20.722Z,8.99
2023-04-16T07:29:48.007Z,9.14
2023-04-16T07:32:15.612Z,9.42
2023-04-16T07:34:43.125Z,9.52
2023-04-16T07:37:10.440Z,9.58
2023-04-16T07:39:37.788Z,9.63
2023-04-16T07:42:05.116Z,9.85
2023-04-16T07:44:32.439Z,9.84
2023-04-16T07:46:59.856Z,10.05
2023-04-16T07:49:27.139Z,10.09
2023-04-16T07:51:54.409Z,10.33
2023-04-16T07:54:21.831Z,10.67
2023-04-16T07:56:49.128Z,10.43
2023-04-16T07:59:22.697Z,10.34
2023-04-16T08:01:50.956Z,10.41
2023-04-16T08:04:23.514Z,10.43
2023-04-16T08:06:51.991Z,10.57
2023-04-16T08:09:24.256Z,10.54
2023-04-16T08:11:51.706Z,10.64
2023-04-16T08:14:19.008Z,10.80
2023-04-16T08:16:46.556Z,11.03
2023-04-16T08:19:13.827Z,11.06
2023-04-16T08:21:41.416Z,11.20
2023-04-16T08:24:08.702Z,11.70
2023-04-16T08:26:36.357Z,11.67
2023-04-16T08:29:03.661Z,12.00
2023-04-16T08:31:31.101Z,12.29
2023-04-16T08:33:58.462Z,12.58
2023-04-16T08:36:26.041Z,12.91
2023-04-16T08:38:53.265Z,13.62
2023-04-16T08:41:22.553Z,13.59
2023-04-16T08:43:52.232Z,13.67
2023-04-16T08:46:23.279Z,13.93
2023-04-16T08:48:55.588Z,14.63
2023-04-16T08:51:24.536Z,14.76
2023-04-16T08:54:05.825Z,14.98
2023-04-16T08:56:37.401Z,14.92
2023-04-16T08:59:05.941Z,14.53
2023-04-16T09:01:33.906Z,14.44
2023-04-16T09:04:16.333Z,14.07
2023-04-16T09:06:44.465Z,14.51
2023-04-16T09:09:13.120Z,14.92
2023-04-16T09:11:40.482Z,14.75
2023-04-16T09:14:11.829Z,14.50
2023-04-16T09:16:40.318Z,14.81
2023-04-16T09:19:07.886Z,14.85
2023-04-16T09:21:36.212Z,15.24
2023-04-16T09:24:04.299Z,14.82
2023-04-16T09:26:31.951Z,14.85
2023-04-16T09:28:59.425Z,14.91
2023-04-16T09:31:27.705Z,15.40
2023-04-16T09:34:15.184Z,15.22
2023-04-16T09:36:43.214Z,15.07
2023-04-16T09:39:20.232Z,15.21
2023-04-16T09:41:48.457Z,14.86
2023-04-16T09:44:15.742Z,14.79
2023-04-16T09:46:44.313Z,14.91
2023-04-16T09:49:15.236Z,14.99
2023-04-16T09:51:43.698Z,14.93
2023-04-16T09:54:11.268Z,14.73
2023-04-16T09:56:47.324Z,13.85
2023-04-16T09:59:22.005Z,14.72
2023-04-16T10:01:50.194Z,14.56
2023-04-16T10:04:17.860Z,14.45
2023-04-16T10:06:47.406Z,14.10
2023-04-16T10:09:14.635Z,13.97
2023-04-16T10:11:42.035Z,13.80
2023-04-16T10:14:09.501Z,13.64
2023-04-16T10:16:37.246Z,13.27
2023-04-16T10:19:05.263Z,13.59
2023-04-16T10:21:34.539Z,13.17
2023-04-16T10:24:02.139Z,13.12
2023-04-16T10:26:30.935Z,13.24
2023-04-16T10:28:59.854Z,13.31
2023-04-16T10:31:29.259Z,13.46
2023-04-16T10:33:57.272Z,13.31
2023-04-16T10:36:26.838Z,13.35
2023-04-16T10:38:59.083Z,13.76
2023-04-16T10:41:27.231Z,13.98
2023-04-16T10:44:07.153Z,14.11
2023-04-16T10:46:45.141Z,14.40
2023-04-16T10:49:25.396Z,14.78
2023-04-16T10:52:00.681Z,14.75
2023-04-16T10:54:31.998Z,14.57
2023-04-16T10:57:04.464Z,14.33
2023-04-16T10:59:35.308Z,14.51
2023-04-16T11:02:09.749Z,14.13
2023-04-16T11:04:39.313Z,13.80
2023-04-16T11:07:16.051Z,13.34
2023-04-16T11:10:04.825Z,13.21
2023-04-16T11:12:38.834Z,12.96
2023-04-16T11:15:10.994Z,12.59
2023-04-16T11:17:45.758Z,12.70
2023-04-16T11:20:20.467Z,12.67
2023-04-16T11:22:53.588Z,12.54
2023-04-16T11:25:22.124Z,12.58
2023-04-16T11:27:50.098Z,12.58
2023-04-16T11:30:18.027Z,12.46
2023-04-16T11:32:45.745Z,12.68
2023-04-16T11:35:18.890Z,12.88
2023-04-16T11:37:49.030Z,13.02
2023-04-16T11:40:16.370Z,12.74
2023-04-16T11:42:44.699Z,12.65
2023-04-16T11:45:12.873Z,12.37
2023-04-16T11:47:58.332Z,12.19
2023-04-16T11:50:29.570Z,12.34
2023-04-16T11:53:03.810Z,12.36
2023-04-16T11:55:31.474Z,12.37
2023-04-16T11:58:12.574Z,12.16
2023-04-16T12:00:41.961Z,12.10
2023-04-16T12:03:09.648Z,12.13
2023-04-16T12:05:41.916Z,12.09
2023-04-16T12:08:10.983Z,12.12
2023-04-16T12:10:54.339Z,12.25
2023-04-16T12:13:21.801Z,12.47
2023-04-16T12:15:54.278Z,12.72
2023-04-16T12:18:24.139Z,12.93
2023-04-16T12:20:51.686Z,13.11
2023-04-16T12:23:30.665Z,13.11
2023-04-16T12:26:03.080Z,13.26
2023-04-16T12:28:33.434Z,13.65
2023-04-16T12:31:01.950Z,13.85
2023-04-16T12:33:29.911Z,13.99
2023-04-16T12:35:57.324Z,13.78
2023-04-16T12:38:25.911Z,13.61
2023-04-16T12:40:57.093Z,13.24
2023-04-16T12:43:25.515Z,13.07
2023-04-16T12:45:52.972Z,13.51
2023-04-16T12:48:20.373Z,13.71
2023-04-16T12:50:47.863Z,14.20
2023-04-16T12:53:15.226Z,14.13
2023-04-16T12:55:42.509Z,13.96
2023-04-16T12:58:11.871Z,14.33
2023-04-16T13:00:40.854Z,14.57
2023-04-16T13:03:08.485Z,14.64
2023-04-16T13:05:35.824Z,14.53
2023-04-16T13:08:03.262Z,14.62
2023-04-16T13:10:30.633Z,14.42
2023-04-16T13:12:57.895Z,14.22
2023-04-16T13:15:25.120Z,14.47
2023-04-16T13:17:52.484Z,14.69
2023-04-16T13:20:19.719Z,14.84
2023-04-16T13:22:47.034Z,14.55
2023-04-16T13:25:14.247Z,14.19
2023-04-16T13:27:41.966Z,13.95
2023-04-16T13:30:09.552Z,13.60
2023-04-16T13:32:36.957Z,13.26
2023-04-16T13:35:05.118Z,13.08
2023-04-16T13:37:32.481Z,12.98
2023-04-16T13:39:59.715Z,13.05
2023-04-16T13:42:27.225Z,13.17
2023-04-16T13:44:55.339Z,13.01
2023-04-16T13:47:22.663Z,12.67
2023-04-16T13:49:49.949Z,12.58
2023-04-16T13:52:17.259Z,12.46
2023-04-16T13:54:44.521Z,12.55
2023-04-16T13:57:20.259Z,12.59
2023-04-16T13:59:47.540Z,12.67
2023-04-16T14:02:15.437Z,12.65
2023-04-16T14:04:42.662Z,12.80
2023-04-16T14:07:09.966Z,13.01
2023-04-16T14:09:37.230Z,12.93
2023-04-16T14:12:04.768Z,12.71
2023-04-16T14:14:32.241Z,12.68
2023-04-16T14:17:00.120Z,12.62
2023-04-16T14:19:27.353Z,12.47
2023-04-16T14:21:54.843Z,12.46
2023-04-16T14:24:22.034Z,12.61
2023-04-16T14:26:49.248Z,12.50
2023-04-16T14:29:16.490Z,12.57
2023-04-16T14:31:43.753Z,12.77
2023-04-16T14:34:11.221Z,12.88
2023-04-16T14:36:38.652Z,12.82
2023-04-16T14:39:05.820Z,12.70
2023-04-16T14:41:33.010Z,12.66
2023-04-16T14:44:00.357Z,12.59
2023-04-16T14:46:27.613Z,12.79
2023-04-16T14:48:54.980Z,12.51
2023-04-16T14:51:22.328Z,12.36
2023-04-16T14:53:49.636Z,12.16
2023-04-16T14:56:16.910Z,11.69
2023-04-16T14:58:44.152Z,11.56
2023-04-16T15:01:13.954Z,11.52
2023-04-16T15:03:42.235Z,11.73
2023-04-16T15:06:11.451Z,11.86
2023-04-16T15:08:39.009Z,11.90
2023-04-16T15:11:06.240Z,11.89
2023-04-16T15:13:36.789Z,11.84
2023-04-16T15:16:07.456Z,11.88
2023-04-16T15:18:34.861Z,11.67
2023-04-16T15:21:02.081Z,11.31
2023-04-16T15:23:29.395Z,11.38
2023-04-16T15:25:56.751Z,11.50
2023-04-16T15:28:24.241Z,11.52
2023-04-16T15:30:52.565Z,11.61
2023-04-16T15:33:23.212Z,11.50
2023-04-16T15:35:51.929Z,11.53
2023-04-16T15:38:21.849Z,11.64
2023-04-16T15:40:49.199Z,11.46
2023-04-16T15:43:17.040Z,11.31
2023-04-16T15:45:44.242Z,11.21
2023-04-16T15:48:11.663Z,11.12
2023-04-16T15:50:39.037Z,11.12
2023-04-16T15:53:06.333Z,11.32
2023-04-16T15:55:33.579Z,11.20
2023-04-16T15:58:01.068Z,11.29
2023-04-16T16:00:28.312Z,11.30
2023-04-16T16:02:55.647Z,11.23
2023-04-16T16:05:23.012Z,11.20
2023-04-16T16:07:50.354Z,11.25
2023-04-16T16:10:17.770Z,11.30
2023-04-16T16:12:45.283Z,11.16
2023-04-16T16:15:12.826Z,10.96
2023-04-16T16:17:41.240Z,10.90
2023-04-16T16:20:11.404Z,10.75
2023-04-16T16:22:39.522Z,10.61
2023-04-16T16:25:07.753Z,10.49
2023-04-16T16:27:36.652Z,10.34
2023-04-16T16:30:07.094Z,10.22
2023-04-16T16:32:34.589Z,10.08
2023-04-16T16:35:02.067Z,10.00
2023-04-16T16:37:29.817Z,9.93
2023-04-16T16:39:57.172Z,9.92
2023-04-16T16:42:24.588Z,9.91
2023-04-16T16:44:51.942Z,9.74
2023-04-16T16:47:19.271Z,9.51
2023-04-16T16:49:46.991Z,9.41
2023-04-16T16:52:14.483Z,9.38
2023-04-16T16:54:43.281Z,9.30
2023-04-16T16:57:10.686Z,9.31
2023-04-16T16:59:37.893Z,9.21
2023-04-16T17:02:06.043Z,9.20
2023-04-16T17:04:33.320Z,9.13
2023-04-16T17:07:00.872Z,9.09
2023-04-16T17:09:28.265Z,9.01
2023-04-16T17:11:55.548Z,8.93
2023-04-16T17:14:22.875Z,8.87
2023-04-16T17:16:50.412Z,8.84
2023-04-16T17:19:18.263Z,8.74
2023-04-16T17:21:45.946Z,8.70
2023-04-16T17:24:13.346Z,8.66
2023-04-16T17:26:41.653Z,8.64
2023-04-16T17:29:08.998Z,8.62
2023-04-16T17:31:36.859Z,8.58
2023-04-16T17:34:06.508Z,8.55
2023-04-16T17:36:33.836Z,8.51
2023-04-16T17:39:01.245Z,8.46
2023-04-16T17:41:28.508Z,8.40
2023-04-16T17:43:55.892Z,8.33
2023-04-16T17:46:23.341Z,8.27
2023-04-16T17:48:50.745Z,8.19
2023-04-16T17:51:18.014Z,8.11
2023-04-16T17:53:45.536Z,8.02
2023-04-16T17:56:13.985Z,7.92
2023-04-16T17:58:41.333Z,7.84
2023-04-16T18:01:08.900Z,7.74
2023-04-16T18:03:37.835Z,7.64
2023-04-16T18:06:05.463Z,7.56
2023-04-16T18:08:34.154Z,7.49
2023-04-16T18:11:01.405Z,7.45
2023-04-16T18:13:28.741Z,7.42
2023-04-16T18:15:56.448Z,7.40
2023-04-16T18:18:23.911Z,7.38
2023-04-16T18:20:52.862Z,7.37
2023-04-16T18:23:20.214Z,7.41
2023-04-16T18:25:48.832Z,7.45
2023-04-16T18:28:18.185Z,7.46
2023-04-16T18:30:45.979Z,7.48
2023-04-16T18:35:43.719Z,7.48
2023-04-16T18:38:11.050Z,7.49
2023-04-16T18:40:38.234Z,7.47
2023-04-16T18:43:06.098Z,7.45
2023-04-16T18:45:34.340Z,7.40
2023-04-16T18:48:04.248Z,7.36
2023-04-16T18:50:31.578Z,7.29
2023-04-16T18:52:58.848Z,7.19
2023-04-16T18:55:26.367Z,7.10
2023-04-16T18:57:53.739Z,7.03
2023-04-16T19:00:21.185Z,6.93
2023-04-16T19:02:48.700Z,6.85
2023-04-16T19:05:16.189Z,6.79
2023-04-16T19:07:43.505Z,6.73
2023-04-16T19:10:10.994Z,6.61
2023-04-16T19:12:38.340Z,6.52
2023-04-16T19:15:06.148Z,6.45
2023-04-16T19:17:33.535Z,6.36
2023-04-16T19:20:01.006Z,6.27
2023-04-16T19:22:28.689Z,6.19
2023-04-16T19:24:56.095Z,6.09
2023-04-16T19:27:23.412Z,6.01
2023-04-16T19:29:50.722Z,5.93
2023-04-16T19:32:18.013Z,5.86
2023-04-16T19:34:45.360Z,5.81
2023-04-16T19:37:12.694Z,5.76
2023-04-16T19:39:40.008Z,5.70
2023-04-16T19:42:07.682Z,5.67
2023-04-16T19:44:36.208Z,5.63
2023-04-16T19:47:03.641Z,5.59
2023-04-16T19:49:34.479Z,5.55
2023-04-16T19:52:02.171Z,5.49
2023-04-16T19:54:29.575Z,5.43
2023-04-16T19:56:57.605Z,5.38
2023-04-16T19:59:28.442Z,5.31
2023-04-16T20:01:55.630Z,5.27
2023-04-16T20:04:22.987Z,5.28
2023-04-16T20:06:50.320Z,5.25
2023-04-16T20:09:20.510Z,5.24
2023-04-16T20:11:48.169Z,5.20
2023-04-16T20:14:15.673Z,5.16
2023-04-16T20:16:44.002Z,5.11
2023-04-16T20:19:11.639Z,5.05
2023-04-16T20:21:40.739Z,5.00
2023-04-16T20:24:11.240Z,4.96
2023-04-16T20:26:38.499Z,4.90
2023-04-16T20:29:06.141Z,4.84
2023-04-16T20:31:33.350Z,4.78
2023-04-16T20:34:00.995Z,4.75
2023-04-16T20:36:28.317Z,4.73
2023-04-16T20:38:55.764Z,4.69
2023-04-16T20:41:23.061Z,4.67
2023-04-16T20:43:53.279Z,4.68
2023-04-16T20:46:24.752Z,4.69
2023-04-16T20:48:52.250Z,4.67
2023-04-16T20:51:20.290Z,4.64
2023-04-16T20:53:47.857Z,4.60
2023-04-16T20:56:15.261Z,4.61
2023-04-16T20:58:45.523Z,4.60
2023-04-16T21:01:12.996Z,4.62
2023-04-16T21:03:40.401Z,4.62
2023-04-16T21:06:07.986Z,4.62
2023-04-16T21:08:35.837Z,4.68
2023-04-16T21:11:03.190Z,4.76
2023-04-16T21:13:30.462Z,4.83
2023-04-16T21:15:57.734Z,4.94
2023-04-16T21:18:25.004Z,5.03
2023-04-16T21:20:52.184Z,5.13
2023-04-16T21:23:19.624Z,5.25
2023-04-16T21:25:46.979Z,5.36
2023-04-16T21:28:14.372Z,5.49
2023-04-16T21:30:42.216Z,5.61
2023-04-16T21:33:09.516Z,5.69
2023-04-16T21:35:36.745Z,5.76
2023-04-16T21:38:04.079Z,5.83
2023-04-16T21:40:31.332Z,5.90
2023-04-16T21:42:58.696Z,5.96
2023-04-16T21:45:25.915Z,6.01
2023-04-16T21:47:53.204Z,6.05
2023-04-16T21:50:20.793Z,6.12
2023-04-16T21:52:48.134Z,6.19
2023-04-16T21:55:15.432Z,6.25
2023-04-16T21:57:42.727Z,6.31
2023-04-16T22:00:14.577Z,6.37
2023-04-16T22:02:45.058Z,6.41
2023-04-16T22:05:12.657Z,6.47
2023-04-16T22:07:40.163Z,6.51
2023-04-16T22:10:09.423Z,6.57
2023-04-16T22:12:40.161Z,6.62
2023-04-16T22:15:08.406Z,6.64
2023-04-16T22:17:35.731Z,6.67
2023-04-16T22:20:09.351Z,6.69
2023-04-16T22:22:36.647Z,6.70
2023-04-16T22:25:04.276Z,6.71
2023-04-16T22:27:31.634Z,6.69
2023-04-16T22:29:58.886Z,6.62
2023-04-16T22:32:26.551Z,6.54
2023-04-16T22:34:53.894Z,6.45
2023-04-16T22:37:21.271Z,6.33
2023-04-16T22:39:48.476Z,6.24
2023-04-16T22:42:15.772Z,6.13
2023-04-16T22:44:42.940Z,5.98
2023-04-16T22:47:10.192Z,5.84
2023-04-16T22:49:37.394Z,5.66
2023-04-16T22:52:04.796Z,5.57
2023-04-16T22:54:32.882Z,5.50
2023-04-16T22:57:00.350Z,5.44
2023-04-16T22:59:27.614Z,5.38
2023-04-16T23:01:55.015Z,5.32
2023-04-16T23:04:22.448Z,5.26
2023-04-16T23:06:49.822Z,5.18
2023-04-16T23:09:17.343Z,5.11
2023-04-16T23:11:44.563Z,5.05
2023-04-16T23:14:16.234Z,5.04
2023-04-16T23:16:44.222Z,5.03
2023-04-16T23:19:15.295Z,5.02
2023-04-16T23:21:42.655Z,4.99
2023-04-16T23:24:09.933Z,4.99
2023-04-16T23:26:37.217Z,5.04
2023-04-16T23:29:04.561Z,5.11
2023-04-16T23:31:32.027Z,5.15
2023-04-16T23:33:59.240Z,5.21
2023-04-16T23:36:27.272Z,5.27
2023-04-16T23:38:54.591Z,5.27
2023-04-16T23:41:23.608Z,5.35
2023-04-16T23:43:51.075Z,5.40
2023-04-16T23:46:18.402Z,5.47
2023-04-16T23:48:45.657Z,5.51
2023-04-16T23:51:12.983Z,5.53
2023-04-16T23:53:41.208Z,5.57
2023-04-16T23:56:11.621Z,5.62
2023-04-16T23:58:38.912Z,5.68
